createdAt,value
2022-12-18T00:02:24.413Z,75.87
2022-12-18T00:04:55.692Z,75.35
2022-12-18T00:07:26.742Z,74.78
2022-12-18T00:09:59.365Z,74.12
2022-12-18T00:12:32.930Z,75.24
2022-12-18T00:15:04.243Z,75.53
2022-12-18T00:17:35.231Z,75.67
2022-12-18T00:20:09.012Z,75.88
2022-12-18T00:22:40.117Z,77.23
2022-12-18T00:25:12.072Z,77.25
2022-12-18T00:27:45.512Z,77.95
2022-12-18T00:30:17.020Z,76.13
2022-12-18T00:32:50.375Z,77.00
2022-12-18T00:35:21.929Z,77.04
2022-12-18T00:37:55.036Z,76.66
2022-12-18T00:40:26.555Z,76.02
2022-12-18T00:42:58.544Z,75.62
2022-12-18T00:45:37.196Z,75.31
2022-12-18T00:48:13.823Z,76.69
2022-12-18T00:50:45.419Z,77.16
2022-12-18T00:53:16.852Z,77.11
2022-12-18T00:55:49.487Z,76.73
2022-12-18T00:58:23.334Z,76.56
2022-12-18T01:00:54.935Z,77.43
2022-12-18T01:03:26.242Z,76.55
2022-12-18T01:05:57.858Z,76.24
2022-12-18T01:08:29.305Z,76.28
2022-12-18T01:11:00.810Z,76.46
2022-12-18T01:13:34.661Z,75.87
2022-12-18T01:16:06.494Z,76.91
2022-12-18T01:18:37.795Z,78.14
2022-12-18T01:21:11.290Z,78.43
2022-12-18T01:23:42.540Z,77.91
2022-12-18T01:26:18.040Z,76.27
2022-12-18T01:28:53.160Z,76.68
2022-12-18T01:31:26.720Z,76.75
2022-12-18T01:33:59.858Z,77.43
2022-12-18T01:36:32.942Z,76.46
2022-12-18T01:39:05.113Z,76.16
2022-12-18T01:41:51.518Z,76.76
2022-12-18T01:45:04.866Z,76.00
2022-12-18T01:47:48.939Z,75.27
2022-12-18T01:50:23.673Z,74.41
2022-12-18T01:52:59.311Z,74.13
2022-12-18T01:55:33.523Z,74.80
2022-12-18T01:58:05.730Z,73.90
2022-12-18T02:00:37.843Z,73.84
2022-12-18T02:03:12.358Z,74.31
2022-12-18T02:05:50.546Z,74.40
2022-12-18T02:08:26.134Z,74.83
2022-12-18T02:11:07.417Z,74.74
2022-12-18T02:13:50.385Z,74.16
2022-12-18T02:16:28.516Z,74.89
2022-12-18T02:19:10.231Z,73.96
2022-12-18T02:21:52.064Z,74.45
2022-12-18T02:24:33.710Z,74.55
2022-12-18T02:27:09.915Z,74.58
2022-12-18T02:29:50.565Z,74.99
2022-12-18T02:32:31.015Z,75.63
2022-12-18T02:35:03.593Z,75.70
2022-12-18T02:37:38.963Z,75.20
2022-12-18T02:40:13.397Z,74.78
2022-12-18T02:42:46.908Z,75.33
2022-12-18T02:45:18.363Z,75.99
2022-12-18T02:47:52.674Z,75.61
2022-12-18T02:50:29.678Z,75.49
2022-12-18T02:53:15.076Z,76.13
2022-12-18T02:55:57.658Z,76.93
2022-12-18T02:58:39.682Z,77.16
2022-12-18T03:01:19.236Z,75.94
2022-12-18T03:03:55.996Z,75.95
2022-12-18T03:06:32.000Z,75.06
2022-12-18T03:09:10.078Z,75.19
2022-12-18T03:12:00.586Z,75.14
2022-12-18T03:14:38.165Z,73.76
2022-12-18T03:17:15.721Z,73.41
2022-12-18T03:19:50.271Z,73.99
2022-12-18T03:22:23.710Z,74.27
2022-12-18T03:24:57.430Z,74.48
2022-12-18T03:27:32.329Z,73.68
2022-12-18T03:30:11.552Z,74.16
2022-12-18T03:32:48.067Z,74.31
2022-12-18T03:35:25.519Z,74.23
2022-12-18T03:37:57.609Z,74.98
2022-12-18T03:40:35.589Z,76.42
2022-12-18T03:43:14.520Z,76.15
2022-12-18T03:45:56.261Z,76.16
2022-12-18T03:48:36.709Z,75.39
2022-12-18T03:51:14.001Z,75.96
2022-12-18T03:53:52.959Z,75.72
2022-12-18T03:56:26.957Z,75.31
2022-12-18T03:59:01.782Z,75.94
2022-12-18T04:01:39.024Z,76.75
2022-12-18T04:04:14.460Z,76.99
2022-12-18T04:06:47.466Z,77.15
2022-12-18T04:09:19.742Z,77.92
2022-12-18T04:11:51.528Z,77.79
2022-12-18T04:14:23.016Z,77.03
2022-12-18T04:16:57.030Z,75.75
2022-12-18T04:19:28.286Z,75.09
2022-12-18T04:21:59.184Z,74.96
2022-12-18T04:24:30.944Z,74.86
2022-12-18T04:27:02.129Z,74.23
2022-12-18T04:29:33.473Z,74.56
2022-12-18T04:32:08.620Z,75.27
2022-12-18T04:34:42.694Z,75.67
2022-12-18T04:37:13.759Z,74.71
2022-12-18T04:39:45.239Z,75.47
2022-12-18T04:42:16.209Z,75.82
2022-12-18T04:44:48.756Z,74.51
2022-12-18T04:47:22.724Z,75.91
2022-12-18T04:49:56.532Z,76.18
2022-12-18T04:52:35.107Z,76.09
2022-12-18T04:55:07.715Z,75.94
2022-12-18T04:57:39.266Z,75.82
2022-12-18T05:00:12.420Z,75.36
2022-12-18T05:02:47.262Z,76.28
2022-12-18T05:05:19.594Z,74.81
2022-12-18T05:07:50.783Z,73.89
2022-12-18T05:10:23.357Z,73.52
2022-12-18T05:13:04.887Z,73.73
2022-12-18T05:15:37.573Z,74.32
2022-12-18T05:18:12.519Z,74.59
2022-12-18T05:20:46.083Z,75.81
2022-12-18T05:23:17.061Z,75.22
2022-12-18T05:25:56.096Z,74.96
2022-12-18T05:28:28.673Z,75.16
2022-12-18T05:31:03.368Z,74.66
2022-12-18T05:33:50.191Z,74.06
2022-12-18T05:36:25.536Z,74.90
2022-12-18T05:38:56.579Z,75.11
2022-12-18T05:41:30.676Z,74.29
2022-12-18T05:44:05.295Z,73.79
2022-12-18T05:46:39.965Z,75.46
2022-12-18T05:49:14.719Z,76.92
2022-12-18T05:51:47.219Z,77.75
2022-12-18T05:54:20.243Z,76.87
2022-12-18T05:56:51.557Z,75.55
2022-12-18T05:59:22.469Z,74.75
2022-12-18T06:01:54.343Z,74.13
2022-12-18T06:04:32.728Z,74.70
2022-12-18T06:07:04.208Z,73.41
2022-12-18T06:09:37.435Z,73.97
2022-12-18T06:12:09.918Z,74.13
2022-12-18T06:14:42.253Z,73.98
2022-12-18T06:17:13.920Z,73.21
2022-12-18T06:19:48.463Z,73.46
2022-12-18T06:22:21.022Z,73.49
2022-12-18T06:24:52.756Z,74.27
2022-12-18T06:27:25.344Z,74.76
2022-12-18T06:29:59.298Z,74.75
2022-12-18T06:32:31.140Z,75.74
2022-12-18T06:35:05.636Z,76.74
2022-12-18T06:37:38.356Z,76.64
2022-12-18T06:40:11.608Z,77.27
2022-12-18T06:42:44.977Z,76.89
2022-12-18T06:45:20.802Z,75.97
2022-12-18T06:47:53.393Z,74.81
2022-12-18T06:50:28.781Z,75.07
2022-12-18T06:53:03.334Z,75.24
2022-12-18T06:55:36.367Z,75.85
2022-12-18T06:58:10.361Z,75.55
2022-12-18T07:00:45.580Z,74.70
2022-12-18T07:03:18.730Z,74.89
2022-12-18T07:05:55.133Z,75.23
2022-12-18T07:08:26.902Z,77.54
2022-12-18T07:10:59.592Z,77.23
2022-12-18T07:13:31.764Z,77.69
2022-12-18T07:16:18.346Z,78.45
2022-12-18T07:18:58.517Z,77.12
2022-12-18T07:21:36.525Z,78.02
2022-12-18T07:24:12.064Z,77.88
2022-12-18T07:26:46.294Z,78.02
2022-12-18T07:29:17.994Z,77.57
2022-12-18T07:31:52.699Z,76.65
2022-12-18T07:34:24.906Z,77.45
2022-12-18T07:36:59.338Z,76.31
2022-12-18T07:39:33.392Z,77.24
2022-12-18T07:42:29.549Z,77.65
2022-12-18T07:45:04.019Z,77.86
2022-12-18T07:47:39.603Z,76.81
2022-12-18T07:50:12.652Z,77.30
2022-12-18T07:52:49.194Z,77.33
2022-12-18T07:55:22.442Z,76.69
2022-12-18T07:57:57.784Z,77.67
2022-12-18T08:00:33.501Z,78.22
2022-12-18T08:03:07.460Z,77.41
2022-12-18T08:05:39.456Z,77.52
2022-12-18T08:08:14.463Z,76.99
2022-12-18T08:10:45.929Z,77.52
2022-12-18T08:13:17.908Z,76.90
2022-12-18T08:15:50.359Z,77.11
2022-12-18T08:18:22.083Z,76.05
2022-12-18T08:20:53.995Z,75.97
2022-12-18T08:23:29.199Z,75.32
2022-12-18T08:26:03.409Z,75.34
2022-12-18T08:28:35.196Z,76.64
2022-12-18T08:31:07.716Z,77.22
2022-12-18T08:33:41.482Z,77.32
2022-12-18T08:36:14.354Z,77.22
2022-12-18T08:38:51.065Z,76.56
2022-12-18T08:41:23.398Z,76.63
2022-12-18T08:44:07.153Z,76.29
2022-12-18T08:46:44.808Z,76.58
2022-12-18T08:49:16.639Z,76.02
2022-12-18T08:51:49.205Z,75.63
2022-12-18T08:54:24.993Z,75.46
2022-12-18T08:56:57.158Z,75.08
2022-12-18T08:59:29.036Z,76.58
2022-12-18T09:02:02.425Z,76.14
2022-12-18T09:04:34.418Z,74.87
2022-12-18T09:07:05.814Z,74.96
2022-12-18T09:09:39.992Z,74.84
2022-12-18T09:12:11.566Z,75.15
2022-12-18T09:14:44.122Z,75.30
2022-12-18T09:17:16.186Z,75.21
2022-12-18T09:19:48.123Z,75.01
2022-12-18T09:22:20.303Z,75.26
2022-12-18T09:24:55.981Z,74.73
2022-12-18T09:27:28.114Z,74.53
2022-12-18T09:29:59.922Z,74.60
2022-12-18T09:32:32.115Z,76.44
2022-12-18T09:35:04.015Z,76.10
2022-12-18T09:37:36.135Z,75.65
2022-12-18T09:40:17.404Z,74.92
2022-12-18T09:42:59.829Z,74.19
2022-12-18T09:45:34.213Z,73.85
2022-12-18T09:48:08.365Z,74.00
2022-12-18T09:50:43.512Z,75.69
2022-12-18T09:53:21.484Z,77.98
2022-12-18T09:55:57.423Z,78.11
2022-12-18T09:58:36.063Z,78.48
2022-12-18T10:01:15.136Z,77.94
2022-12-18T10:03:47.403Z,78.42
2022-12-18T10:06:26.622Z,77.41
2022-12-18T10:09:03.676Z,78.95
2022-12-18T10:11:47.794Z,78.63
2022-12-18T10:14:28.812Z,77.28
2022-12-18T10:17:07.883Z,76.98
2022-12-18T10:19:50.457Z,75.41
2022-12-18T10:22:32.932Z,75.82
2022-12-18T10:25:11.145Z,75.89
2022-12-18T10:27:45.692Z,75.80
2022-12-18T10:30:22.404Z,77.09
2022-12-18T10:32:53.906Z,76.52
2022-12-18T10:35:29.143Z,76.92
2022-12-18T10:38:07.787Z,76.27
2022-12-18T10:40:55.113Z,76.99
2022-12-18T10:43:33.728Z,76.78
2022-12-18T10:46:21.685Z,76.20
2022-12-18T10:48:57.922Z,75.20
2022-12-18T10:51:34.737Z,77.29
2022-12-18T10:54:09.122Z,77.53
2022-12-18T10:56:43.742Z,77.28
2022-12-18T10:59:20.601Z,76.59
2022-12-18T11:01:56.264Z,77.16
2022-12-18T11:04:29.298Z,76.48
2022-12-18T11:07:05.800Z,77.09
2022-12-18T11:09:39.542Z,77.38
2022-12-18T11:12:22.558Z,77.72
2022-12-18T11:14:59.059Z,77.90
2022-12-18T11:17:34.821Z,77.41
2022-12-18T11:20:09.425Z,76.83
2022-12-18T11:22:43.447Z,77.25
2022-12-18T11:25:33.442Z,77.79
2022-12-18T11:28:08.946Z,77.19
2022-12-18T11:30:42.917Z,76.67
2022-12-18T11:33:20.467Z,77.60
2022-12-18T11:35:57.248Z,77.95
2022-12-18T11:38:34.980Z,77.60
2022-12-18T11:41:13.381Z,77.25
2022-12-18T11:43:54.095Z,76.53
2022-12-18T11:46:41.436Z,76.74
2022-12-18T11:49:18.504Z,76.92
2022-12-18T11:51:57.653Z,77.77
2022-12-18T11:54:29.215Z,78.21
2022-12-18T11:57:08.830Z,78.23
2022-12-18T11:59:52.285Z,77.63
2022-12-18T12:02:42.147Z,77.18
2022-12-18T12:05:29.575Z,77.38
2022-12-18T12:08:11.586Z,76.74
2022-12-18T12:10:56.863Z,77.02
2022-12-18T12:13:44.611Z,77.34
2022-12-18T12:16:22.376Z,77.31
2022-12-18T12:19:14.530Z,77.43
2022-12-18T12:21:50.547Z,75.70
2022-12-18T12:24:36.164Z,75.61
2022-12-18T12:27:17.884Z,76.12
2022-12-18T12:30:00.504Z,76.66
2022-12-18T12:32:47.957Z,75.47
2022-12-18T12:35:33.671Z,74.16
2022-12-18T12:38:14.725Z,73.27
2022-12-18T12:40:58.851Z,73.47
2022-12-18T12:43:46.106Z,74.25
2022-12-18T12:46:24.408Z,74.72
2022-12-18T12:49:00.953Z,74.35
2022-12-18T12:51:39.249Z,74.44
2022-12-18T12:54:28.857Z,74.83
2022-12-18T12:57:07.232Z,74.83
2022-12-18T12:59:51.450Z,74.71
2022-12-18T13:02:33.062Z,75.55
2022-12-18T13:05:14.009Z,76.32
2022-12-18T13:07:54.874Z,76.06
2022-12-18T13:10:37.259Z,75.98
2022-12-18T13:13:09.223Z,76.31
2022-12-18T13:15:44.302Z,76.01
2022-12-18T13:18:23.727Z,76.91
2022-12-18T13:21:05.981Z,76.67
2022-12-18T13:23:41.507Z,75.87
2022-12-18T13:26:37.506Z,77.01
2022-12-18T13:29:08.398Z,76.79
2022-12-18T13:32:15.827Z,75.93
2022-12-18T13:34:50.860Z,76.82
2022-12-18T13:37:47.339Z,76.96
2022-12-18T13:40:56.952Z,76.91
2022-12-18T13:43:35.756Z,78.02
2022-12-18T13:46:21.986Z,77.13
2022-12-18T13:48:58.544Z,78.68
2022-12-18T13:51:35.285Z,78.86
2022-12-18T13:54:17.692Z,77.60
2022-12-18T13:56:51.199Z,76.18
2022-12-18T13:59:28.393Z,76.33
2022-12-18T14:02:02.869Z,75.59
2022-12-18T14:04:37.642Z,76.64
2022-12-18T14:07:12.812Z,77.31
2022-12-18T14:09:50.700Z,78.09
2022-12-18T14:12:37.738Z,78.40
2022-12-18T14:15:31.964Z,78.48
2022-12-18T14:18:22.965Z,78.52
2022-12-18T14:20:56.496Z,76.78
2022-12-18T14:23:33.248Z,76.72
2022-12-18T14:26:06.454Z,76.03
2022-12-18T14:28:47.402Z,76.60
2022-12-18T14:31:25.938Z,78.43
2022-12-18T14:33:58.596Z,78.11
2022-12-18T14:36:32.509Z,77.90
2022-12-18T14:39:03.478Z,78.22
2022-12-18T14:41:34.867Z,78.31
2022-12-18T14:44:12.045Z,77.55
2022-12-18T14:46:50.112Z,77.68
2022-12-18T14:49:28.815Z,76.94
2022-12-18T14:52:04.037Z,78.06
2022-12-18T14:54:38.018Z,78.47
2022-12-18T14:57:22.670Z,77.79
2022-12-18T15:00:30.869Z,78.66
2022-12-18T15:03:38.026Z,78.22
2022-12-18T15:06:29.983Z,78.23
2022-12-18T15:09:02.693Z,77.91
2022-12-18T15:11:40.190Z,77.34
2022-12-18T15:14:35.933Z,77.13
2022-12-18T15:17:10.972Z,77.35
2022-12-18T15:19:48.049Z,78.78
2022-12-18T15:22:30.711Z,78.83
2022-12-18T15:25:03.594Z,78.08
2022-12-18T15:27:51.549Z,77.34
2022-12-18T15:30:26.713Z,76.54
2022-12-18T15:33:26.249Z,75.80
2022-12-18T15:36:05.271Z,76.72
2022-12-18T15:38:36.973Z,77.49
2022-12-18T15:41:13.962Z,77.97
2022-12-18T15:43:44.171Z,78.42
2022-12-18T15:46:19.765Z,78.50
2022-12-18T15:48:56.685Z,78.12
2022-12-18T15:51:38.750Z,78.17
2022-12-18T15:54:16.895Z,77.95
2022-12-18T15:57:01.093Z,77.67
2022-12-18T15:59:33.187Z,78.92
2022-12-18T16:02:05.474Z,78.83
2022-12-18T16:04:37.693Z,78.84
2022-12-18T16:07:17.571Z,78.30
2022-12-18T16:09:55.493Z,76.69
2022-12-18T16:12:29.510Z,76.56
2022-12-18T16:15:01.032Z,74.80
2022-12-18T16:17:33.011Z,76.47
2022-12-18T16:20:04.972Z,76.50
2022-12-18T16:22:39.752Z,77.89
2022-12-18T16:25:20.312Z,77.12
2022-12-18T16:27:52.929Z,76.46
2022-12-18T16:30:31.211Z,76.02
2022-12-18T16:33:08.242Z,76.81
2022-12-18T16:35:40.140Z,76.01
2022-12-18T16:38:17.881Z,76.31
2022-12-18T16:41:01.524Z,76.02
2022-12-18T16:43:33.546Z,76.27
2022-12-18T16:46:05.560Z,76.33
2022-12-18T16:48:40.067Z,75.79
2022-12-18T16:51:11.756Z,75.43
2022-12-18T16:53:46.652Z,74.40
2022-12-18T16:56:18.034Z,73.30
2022-12-18T16:58:54.928Z,72.55
2022-12-18T17:01:27.568Z,74.62
2022-12-18T17:04:02.260Z,75.09
2022-12-18T17:06:37.582Z,75.83
2022-12-18T17:09:17.273Z,76.74
2022-12-18T17:11:49.187Z,76.88
2022-12-18T17:14:24.812Z,77.01
2022-12-18T17:17:20.242Z,76.35
2022-12-18T17:19:50.962Z,75.08
2022-12-18T17:22:23.452Z,74.99
2022-12-18T17:24:59.869Z,74.33
2022-12-18T17:27:31.536Z,73.99
2022-12-18T17:30:03.329Z,73.78
2022-12-18T17:32:35.196Z,76.00
2022-12-18T17:35:08.492Z,76.89
2022-12-18T17:37:41.999Z,74.97
2022-12-18T17:40:16.855Z,74.79
2022-12-18T17:42:48.560Z,75.06
2022-12-18T17:45:21.022Z,74.83
2022-12-18T17:47:58.239Z,76.82
2022-12-18T17:50:32.725Z,73.88
2022-12-18T17:53:05.836Z,74.14
2022-12-18T17:55:41.262Z,72.95
2022-12-18T17:58:13.178Z,73.96
2022-12-18T18:00:45.440Z,73.83
2022-12-18T18:03:17.160Z,72.37
2022-12-18T18:05:50.843Z,72.58
2022-12-18T18:08:22.571Z,73.08
2022-12-18T18:11:17.833Z,72.94
2022-12-18T18:14:01.846Z,73.27
2022-12-18T18:16:40.565Z,73.82
2022-12-18T18:19:16.956Z,73.18
2022-12-18T18:21:51.337Z,74.09
2022-12-18T18:24:26.407Z,75.42
2022-12-18T18:27:02.926Z,75.17
2022-12-18T18:29:35.358Z,75.48
2022-12-18T18:32:08.338Z,75.37
2022-12-18T18:34:46.686Z,74.97
2022-12-18T18:37:20.258Z,74.08
2022-12-18T18:39:52.093Z,74.36
2022-12-18T18:42:27.522Z,73.95
2022-12-18T18:44:59.180Z,74.40
2022-12-18T18:47:33.288Z,75.93
2022-12-18T18:50:05.063Z,75.68
2022-12-18T18:52:36.669Z,74.17
2022-12-18T18:55:18.576Z,73.46
2022-12-18T18:58:00.392Z,73.18
2022-12-18T19:00:33.520Z,74.24
2022-12-18T19:03:06.135Z,74.47
2022-12-18T19:05:42.965Z,75.34
2022-12-18T19:08:18.134Z,73.94
2022-12-18T19:10:54.568Z,75.87
2022-12-18T19:13:31.680Z,76.26
2022-12-18T19:16:10.233Z,76.75
2022-12-18T19:18:42.520Z,75.70
2022-12-18T19:21:14.789Z,76.00
2022-12-18T19:23:47.667Z,76.41
2022-12-18T19:26:30.167Z,75.96
2022-12-18T19:29:08.612Z,76.33
2022-12-18T19:31:42.174Z,76.02
2022-12-18T19:34:15.323Z,75.71
2022-12-18T19:36:46.747Z,74.96
2022-12-18T19:39:21.251Z,74.26
2022-12-18T19:41:52.716Z,75.89
2022-12-18T19:44:28.321Z,75.71
2022-12-18T19:46:59.820Z,74.13
2022-12-18T19:49:32.971Z,74.32
2022-12-18T19:52:05.648Z,74.71
2022-12-18T19:54:37.407Z,75.04
2022-12-18T19:57:11.804Z,75.66
2022-12-18T19:59:46.625Z,74.61
2022-12-18T20:02:21.912Z,74.89
2022-12-18T20:04:54.989Z,75.04
2022-12-18T20:07:31.250Z,74.76
2022-12-18T20:10:08.937Z,74.18
2022-12-18T20:12:42.422Z,74.60
2022-12-18T20:15:17.420Z,74.57
2022-12-18T20:17:48.943Z,74.24
2022-12-18T20:20:23.040Z,74.75
2022-12-18T20:22:54.629Z,75.54
2022-12-18T20:25:26.781Z,75.02
2022-12-18T20:27:58.329Z,74.36
2022-12-18T20:30:32.718Z,75.40
2022-12-18T20:33:04.191Z,73.70
2022-12-18T20:35:36.567Z,73.86
2022-12-18T20:38:08.544Z,74.29
2022-12-18T20:40:43.647Z,75.56
2022-12-18T20:43:17.318Z,74.83
2022-12-18T20:45:52.097Z,75.12
2022-12-18T20:48:26.641Z,74.53
2022-12-18T20:51:03.887Z,74.45
2022-12-18T20:53:36.939Z,75.69
2022-12-18T20:56:16.525Z,75.64
2022-12-18T20:58:53.975Z,74.21
2022-12-18T21:01:31.511Z,73.67
2022-12-18T21:04:03.339Z,72.75
2022-12-18T21:06:38.917Z,73.01
2022-12-18T21:09:10.457Z,73.74
2022-12-18T21:11:54.334Z,74.63
2022-12-18T21:14:28.086Z,73.87
2022-12-18T21:17:03.962Z,72.67
2022-12-18T21:19:36.064Z,73.46
2022-12-18T21:22:08.128Z,73.05
2022-12-18T21:24:40.029Z,72.15
2022-12-18T21:27:12.214Z,73.63
2022-12-18T21:29:48.272Z,73.17
2022-12-18T21:32:26.155Z,73.86
2022-12-18T21:35:07.950Z,72.61
2022-12-18T21:37:39.906Z,73.04
2022-12-18T21:40:13.314Z,72.37
2022-12-18T21:43:00.059Z,72.63
2022-12-18T21:45:35.260Z,71.88
2022-12-18T21:48:10.157Z,70.94
2022-12-18T21:50:41.670Z,71.35
2022-12-18T21:53:13.409Z,70.91
2022-12-18T21:55:45.303Z,71.03
2022-12-18T21:58:17.512Z,71.45
2022-12-18T22:00:48.962Z,71.22
2022-12-18T22:03:28.956Z,71.50
2022-12-18T22:06:09.323Z,71.34
2022-12-18T22:08:43.717Z,70.43
2022-12-18T22:11:16.007Z,70.71
2022-12-18T22:13:52.538Z,69.88
2022-12-18T22:16:24.220Z,69.74
2022-12-18T22:18:59.062Z,70.24
2022-12-18T22:21:32.907Z,70.53
2022-12-18T22:24:06.643Z,71.50
2022-12-18T22:26:40.553Z,72.31
2022-12-18T22:29:33.486Z,71.37
2022-12-18T22:32:06.657Z,70.30
2022-12-18T22:34:41.679Z,70.39
2022-12-18T22:37:15.045Z,69.21
2022-12-18T22:39:55.966Z,68.96
2022-12-18T22:42:35.740Z,70.72
2022-12-18T22:45:08.394Z,70.83
2022-12-18T22:47:45.314Z,70.77
2022-12-18T22:50:19.912Z,71.13
2022-12-18T22:52:57.560Z,72.05
2022-12-18T22:55:31.986Z,71.63
2022-12-18T22:58:04.221Z,72.20
2022-12-18T23:00:36.560Z,71.57
2022-12-18T23:03:10.230Z,71.34
2022-12-18T23:05:45.582Z,69.90
2022-12-18T23:08:17.882Z,69.07
2022-12-18T23:10:50.154Z,70.41
2022-12-18T23:13:22.093Z,70.97
2022-12-18T23:15:54.493Z,71.61
2022-12-18T23:18:26.441Z,70.02
2022-12-18T23:21:01.823Z,70.64
2022-12-18T23:23:37.723Z,71.71
2022-12-18T23:26:12.901Z,71.44
2022-12-18T23:28:45.344Z,71.96
2022-12-18T23:31:19.783Z,72.43
2022-12-18T23:33:52.382Z,71.26
2022-12-18T23:36:28.653Z,71.80
2022-12-18T23:39:04.542Z,71.43
2022-12-18T23:41:37.111Z,70.51
2022-12-18T23:44:09.245Z,70.15
2022-12-18T23:46:41.693Z,69.92
2022-12-18T23:49:13.992Z,69.15
2022-12-18T23:51:49.004Z,70.22
2022-12-18T23:54:22.642Z,70.18
2022-12-18T23:57:05.870Z,69.62
2022-12-18T23:59:37.953Z,69.08
